M I D A S
Marine Information and Data Acquisition System
Tripno 1810 of the Zeeleeuw from 2009-11-19 08:28:57 to 2009-11-19 13:29:36
Back to CruiseResearch ActivitiesStationsMapUnderway DataData graphs

EquipmentUnitsComment
TimeDGPSUTC
LatitudeDGPSDM.mWGS84
LongitudeDGPSDM.mWGS84
HeadingGyrodeg 
SOGDGPSknotsSpeed over ground
COGDGPSdegCourse over ground
DepthEcho soundermeters200 kHz
Missing or incorrect values are displayed as -999
Navigation data collected by the RV Zeeleeuw from 2009-11-19 08:31:40 to 2009-11-19 13:47:33
Time Latitude Longitude Heading SOG COG Depth
2009-11-19 08:32:49 51°13.681 2°55.881 107.3 3.8 288 -999
2009-11-19 08:33:49 51°13.694 2°55.792 93.9 3 280 -999
2009-11-19 08:34:48 51°13.7 2°55.758 57.1 0.5 353 12.6
2009-11-19 08:35:48 51°13.693 2°55.742 19.7 0.3 305 -999
2009-11-19 08:36:47 51°13.735 2°55.711 331.1 5 330 10.5
2009-11-19 08:37:45 51°13.829 2°55.633 335 7.5 335 9.9
2009-11-19 08:38:45 51°13.95 2°55.542 336.3 8.3 336 9.6
2009-11-19 08:39:45 51°14.078 2°55.448 336 8.5 334 9.4
2009-11-19 08:40:45 51°14.199 2°55.338 325.2 8.5 323 9.3
2009-11-19 08:41:45 51°14.299 2°55.176 310.7 9.1 311 9.2
2009-11-19 08:42:45 51°14.407 2°54.983 311.6 10.4 312 8.9
2009-11-19 08:43:45 51°14.554 2°54.823 338.9 10.7 334 8.9
2009-11-19 08:44:45 51°14.715 2°54.696 339.4 10.9 334 8.3
2009-11-19 08:45:45 51°14.879 2°54.574 339.1 10.9 336 8.7
2009-11-19 08:46:45 51°15.042 2°54.452 338.2 10.9 335 9.2
2009-11-19 08:47:45 51°15.204 2°54.329 337.8 10.7 333 8.1
2009-11-19 08:48:45 51°15.362 2°54.203 339 10.7 334 8.4
2009-11-19 08:49:45 51°15.519 2°54.076 339 10.6 334 9
2009-11-19 08:50:45 51°15.676 2°53.944 337.6 10.7 332 9.2
2009-11-19 08:51:45 51°15.834 2°53.813 338.2 10.8 333 9.9
2009-11-19 08:52:45 51°15.997 2°53.685 338.3 10.9 333 10.6
2009-11-19 08:53:45 51°16.155 2°53.555 338.3 10.8 334 10.3
2009-11-19 08:54:45 51°16.314 2°53.426 335.8 10.6 332 10.5
2009-11-19 08:55:45 51°16.467 2°53.284 335.4 10.7 331 10.6
2009-11-19 08:56:45 51°16.625 2°53.145 335.1 10.8 333 10.3
2009-11-19 08:57:45 51°16.778 2°53.005 332.3 10.4 329 9.4
2009-11-19 08:58:45 51°16.924 2°52.862 332.2 10.3 328 8.4
2009-11-19 08:59:45 51°17.069 2°52.715 330.8 10.2 327 8.8
2009-11-19 09:00:45 51°17.214 2°52.569 332.7 10.3 330 9.1
2009-11-19 09:01:45 51°17.357 2°52.424 332 10.2 327 9
2009-11-19 09:02:45 51°17.499 2°52.278 332.1 10.3 327 9.5
2009-11-19 09:03:45 51°17.642 2°52.13 331.8 10.3 326 10.4
2009-11-19 09:04:45 51°17.787 2°51.982 331.8 10.3 327 9
2009-11-19 09:05:45 51°17.928 2°51.838 331.4 10.2 328 9.3
2009-11-19 09:06:45 51°18.07 2°51.689 331.5 10.3 325 9.6
2009-11-19 09:07:45 51°18.217 2°51.541 332.4 10.3 329 11
2009-11-19 09:08:45 51°18.363 2°51.395 332.7 10.5 328 11.4
2009-11-19 09:09:45 51°18.506 2°51.243 331.7 10.3 328 13.3
2009-11-19 09:10:45 51°18.65 2°51.091 331.9 10.5 326 12.7
2009-11-19 09:11:45 51°18.798 2°50.938 332.1 10.5 328 14
2009-11-19 09:12:45 51°18.942 2°50.787 332.4 10.5 325 13.6
2009-11-19 09:13:45 51°19.083 2°50.636 331.8 10.3 326 13.3
2009-11-19 09:14:45 51°19.228 2°50.488 333.3 10.2 328 12.5
2009-11-19 09:15:45 51°19.374 2°50.34 332 10.7 327 10.8
2009-11-19 09:16:45 51°19.524 2°50.19 332.1 10.6 329 11
2009-11-19 09:17:45 51°19.673 2°50.038 331.9 10.6 328 13.2
2009-11-19 09:18:45 51°19.821 2°49.891 332.2 10.6 328 14.6
2009-11-19 09:19:45 51°19.967 2°49.739 332 10.4 328 16
2009-11-19 09:20:45 51°20.115 2°49.589 332.5 10.7 327 18.5
2009-11-19 09:21:45 51°20.26 2°49.431 331.1 10.6 327 20.8
2009-11-19 09:22:45 51°20.404 2°49.278 334 10.5 331 22
2009-11-19 09:23:45 51°20.553 2°49.127 334.2 10.7 327 22.1
2009-11-19 09:24:45 51°20.707 2°48.993 342.2 10.4 337 22.4
2009-11-19 09:25:45 51°20.87 2°48.9 348.4 10.4 345 21.4
2009-11-19 09:26:45 51°21.035 2°48.811 348.7 10.4 338 20
2009-11-19 09:27:45 51°21.196 2°48.722 347 10.4 338 20.4
2009-11-19 09:28:45 51°21.362 2°48.634 348.1 10.7 344 20.9
2009-11-19 09:29:45 51°21.531 2°48.543 347.1 10.7 341 21.9
2009-11-19 09:30:45 51°21.699 2°48.455 347.2 10.6 338 22.5
2009-11-19 09:31:45 51°21.863 2°48.354 341.2 10.8 331 22.9
2009-11-19 09:32:45 51°22.019 2°48.213 334.5 10.7 332 23
2009-11-19 09:33:45 51°22.175 2°48.071 334 10.8 330 23.2
2009-11-19 09:34:45 51°22.324 2°47.924 331.1 10.6 327 19.5
2009-11-19 09:35:45 51°22.471 2°47.768 330.5 10.5 328 18.1
2009-11-19 09:36:45 51°22.617 2°47.615 331.3 10.4 325 15.7
2009-11-19 09:37:45 51°22.762 2°47.458 332 10.6 326 16
2009-11-19 09:38:45 51°22.91 2°47.303 332.3 10.6 326 18.5
2009-11-19 09:39:45 51°23.057 2°47.148 332.5 10.5 328 18.6
2009-11-19 09:40:45 51°23.202 2°46.995 332 10.5 325 20.2
2009-11-19 09:41:45 51°23.348 2°46.839 330.9 10.7 322 24.2
2009-11-19 09:42:45 51°23.495 2°46.688 335 10.4 329 23.1
2009-11-19 09:43:45 51°23.641 2°46.538 331.2 10.5 328 26.7
2009-11-19 09:44:45 51°23.788 2°46.381 333 10.6 324 28.6
2009-11-19 09:45:45 51°23.934 2°46.237 340.1 10.1 336 25.6
2009-11-19 09:46:45 51°24.095 2°46.167 359.2 10.1 356 28.7
2009-11-19 09:47:45 51°24.257 2°46.176 18.3 9.3 18 27.4
2009-11-19 09:48:45 51°24.393 2°46.3 40.8 9.5 47 27.7
2009-11-19 09:49:45 51°24.502 2°46.482 48 9.4 54 28.3
2009-11-19 09:50:45 51°24.595 2°46.685 53 9.5 58 29.2
2009-11-19 09:51:45 51°24.701 2°46.871 43.6 9.7 34 28.7
2009-11-19 09:52:45 51°24.831 2°47.021 35.7 9.7 31 29.1
2009-11-19 09:53:45 51°24.966 2°47.172 38.2 9.9 29 27.4
2009-11-19 09:54:45 51°25.097 2°47.324 38.1 9.9 32 25.6
2009-11-19 09:55:45 51°25.226 2°47.482 35.7 9.4 37 25
2009-11-19 09:56:45 51°25.343 2°47.653 48.3 9.9 46 26.4
2009-11-19 09:57:45 51°25.431 2°47.873 60.4 9.8 60 26.3
2009-11-19 09:58:45 51°25.512 2°48.097 56.5 10.1 59 24.7
2009-11-19 09:59:45 51°25.602 2°48.309 53.1 9.9 49 23.4
2009-11-19 10:00:45 51°25.697 2°48.52 53.4 9.5 51 23.5
2009-11-19 10:01:45 51°25.788 2°48.733 54.7 9.7 53 23.7
2009-11-19 10:02:45 51°25.876 2°48.947 54.8 9.4 55 23.6
2009-11-19 10:03:45 51°25.963 2°49.17 56.2 9.7 56 23.4
2009-11-19 10:04:45 51°26.045 2°49.397 58.4 10.2 62 23
2009-11-19 10:05:45 51°26.131 2°49.624 59.6 10.3 56 22.9
2009-11-19 10:06:45 51°26.22 2°49.855 57.6 10.2 53 22.7
2009-11-19 10:07:45 51°26.305 2°50.081 56.6 9.7 65 23
2009-11-19 10:08:45 51°26.393 2°50.307 56.2 9.6 57 23
2009-11-19 10:09:45 51°26.483 2°50.527 55.2 9.9 61 23.1
2009-11-19 10:10:45 51°26.568 2°50.754 57.1 9.6 64 22.6
2009-11-19 10:11:45 51°26.654 2°50.979 59 9.9 58 21
2009-11-19 10:12:45 51°26.738 2°51.207 58.8 10.1 66 24.1
2009-11-19 10:13:45 51°26.824 2°51.433 57.8 10.1 53 23.2
2009-11-19 10:14:45 51°26.911 2°51.659 56.4 9.6 54 21.6
2009-11-19 10:15:45 51°26.997 2°51.886 57.4 10.2 61 23
2009-11-19 10:16:45 51°27.083 2°52.122 58.8 10.1 59 20.5
2009-11-19 10:17:45 51°27.166 2°52.346 55.5 9.9 64 20.5
2009-11-19 10:18:45 51°27.254 2°52.565 54.1 9.8 55 20.1
2009-11-19 10:19:45 51°27.339 2°52.785 55.2 9.7 56 21.3
2009-11-19 10:20:45 51°27.421 2°53.01 57.4 10.1 57 21.2
2009-11-19 10:21:45 51°27.502 2°53.243 59.6 10.4 64 22.1
2009-11-19 10:22:45 51°27.585 2°53.467 55.6 9.7 62 22.3
2009-11-19 10:23:45 51°27.667 2°53.694 55.3 10 63 22
2009-11-19 10:24:45 51°27.746 2°53.927 62.3 10.2 68 22.1
2009-11-19 10:25:45 51°27.826 2°54.152 62 10.1 63 22.1
2009-11-19 10:26:45 51°27.911 2°54.379 58.2 10.4 63 21.8
2009-11-19 10:27:45 51°27.991 2°54.61 58.9 9.9 68 22.2
2009-11-19 10:28:45 51°28.067 2°54.844 56.7 10.1 66 23.3
2009-11-19 10:29:45 51°28.143 2°55.084 62.1 10.2 61 24.8
2009-11-19 10:30:45 51°28.217 2°55.316 58.9 9.9 62 24.9
2009-11-19 10:31:45 51°28.295 2°55.552 58.2 9.8 57 24.1
2009-11-19 10:32:45 51°28.372 2°55.784 57.4 9.7 67 25.7
2009-11-19 10:33:45 51°28.45 2°56.02 60.7 10.4 57 26.1
2009-11-19 10:34:45 51°28.526 2°56.258 60.8 10.4 60 25.1
2009-11-19 10:35:45 51°28.603 2°56.49 61.5 10.1 57 25.9
2009-11-19 10:36:45 51°28.682 2°56.729 61.4 10.7 59 26.4
2009-11-19 10:37:45 51°28.761 2°56.967 59.2 10.5 62 26.9
2009-11-19 10:38:45 51°28.839 2°57.208 59.4 9.9 61 24.5
2009-11-19 10:39:45 51°28.916 2°57.445 56.3 9.8 60 -999
2009-11-19 10:40:45 51°28.993 2°57.678 57.4 10.3 65 25.5
2009-11-19 10:41:45 51°29.084 2°57.903 54.2 10.5 61 26.4
2009-11-19 10:42:45 51°29.174 2°58.13 58.2 10.2 57 26.8
2009-11-19 10:43:45 51°29.262 2°58.36 59.6 10 60 26.9
2009-11-19 10:44:45 51°29.351 2°58.584 57.8 10 54 27.4
2009-11-19 10:45:45 51°29.441 2°58.807 55.8 10.1 65 26.9
2009-11-19 10:46:45 51°29.53 2°59.035 57.4 10.1 57 26.6
2009-11-19 10:47:45 51°29.617 2°59.267 57.8 10.4 63 27.5
2009-11-19 10:48:45 51°29.706 2°59.494 58.7 10.5 62 27.1
2009-11-19 10:49:45 51°29.793 2°59.723 57.6 10.2 55 27.5
2009-11-19 10:50:45 51°29.882 2°59.949 55.5 9.8 56 27.2
2009-11-19 10:51:45 51°29.967 3°0.18 61.5 10.3 59 27.5
2009-11-19 10:52:45 51°30.053 3°0.403 57.9 9.6 58 27.3
2009-11-19 10:53:45 51°30.141 3°0.634 57.6 10.1 54 28.2
2009-11-19 10:54:45 51°30.231 3°0.865 57.6 10.3 57 27.7
2009-11-19 10:55:45 51°30.319 3°1.092 58.1 10 56 27.5
2009-11-19 10:56:45 51°30.408 3°1.323 57.2 10.4 57 27.9
2009-11-19 10:57:45 51°30.494 3°1.551 57.5 10.3 62 27.6
2009-11-19 10:58:45 51°30.58 3°1.781 58.4 10.1 54 27.9
2009-11-19 10:59:45 51°30.667 3°2.011 56.8 10.1 58 28.2
2009-11-19 11:00:45 51°30.752 3°2.241 57.4 10.1 62 28.2
2009-11-19 11:01:45 51°30.84 3°2.47 58.7 10.2 62 28.2
2009-11-19 11:02:45 51°30.93 3°2.698 58.4 10.2 51 28.2
2009-11-19 11:03:45 51°31.019 3°2.929 56.9 10 62 28.4
2009-11-19 11:04:45 51°31.11 3°3.157 54.1 10.2 57 28.5
2009-11-19 11:05:45 51°31.196 3°3.388 58.6 10.1 57 28.6
2009-11-19 11:06:45 51°31.286 3°3.618 59.1 10.1 51 28.5
2009-11-19 11:07:45 51°31.371 3°3.851 60.1 9.9 55 28.2
2009-11-19 11:08:45 51°31.458 3°4.083 56.3 10.2 55 28.3
2009-11-19 11:09:45 51°31.549 3°4.315 55.1 9.9 62 28.4
2009-11-19 11:10:45 51°31.66 3°4.499 31.8 9.8 31 28.3
2009-11-19 11:11:45 51°31.826 3°4.529 357 10.3 354 28.9
2009-11-19 11:12:45 51°31.994 3°4.472 347.3 10.4 344 28.9
2009-11-19 11:13:45 51°32.164 3°4.406 348.7 10.6 347 29.4
2009-11-19 11:14:45 51°32.331 3°4.326 341.1 10.5 340 29
2009-11-19 11:15:45 51°32.492 3°4.219 337 10.5 332 31.7
2009-11-19 11:16:45 51°32.631 3°4.058 321.8 10.2 322 30.8
2009-11-19 11:17:45 51°32.766 3°3.883 320.8 10.5 319 29.8
2009-11-19 11:18:45 51°32.901 3°3.709 321.5 10.3 322 25.7
2009-11-19 11:19:45 51°33.03 3°3.534 316.5 10 319 22.6
2009-11-19 11:20:45 51°33.133 3°3.337 293.2 9.6 289 21.4
2009-11-19 11:21:46 51°33.139 3°3.091 256.5 9 250 21.7
2009-11-19 11:22:46 51°33.052 3°2.881 234.1 9.2 235 21.8
2009-11-19 11:23:46 51°32.973 3°2.669 243.5 8.9 244 -999
2009-11-19 11:24:46 51°32.9 3°2.441 244.4 9.6 244 -999
2009-11-19 11:25:46 51°32.828 3°2.214 244.1 9.5 241 22
2009-11-19 11:26:46 51°32.753 3°1.982 243.5 10.2 244 22.9
2009-11-19 11:27:45 51°32.678 3°1.749 242.9 9.4 242 -999
2009-11-19 11:28:45 51°32.605 3°1.52 243.2 9.8 243 23.8
2009-11-19 11:29:45 51°32.497 3°1.335 216.8 9 211 24.9
2009-11-19 11:30:45 51°32.355 3°1.195 211.8 10.4 211 25.4
2009-11-19 11:31:45 51°32.208 3°1.064 209 10.3 208 24.3
2009-11-19 11:32:45 51°32.049 3°0.953 204 10.3 203 25.4
2009-11-19 11:33:44 51°31.89 3°0.854 202.6 10.2 201 26.3
2009-11-19 11:34:45 51°31.73 3°0.755 203.2 10 201 -999
2009-11-19 11:35:46 51°31.573 3°0.662 201.9 9.7 201 26.5
2009-11-19 11:36:45 51°31.418 3°0.575 200.8 10.1 199 26
2009-11-19 11:37:44 51°31.266 3°0.49 201.9 9.8 200 -999
2009-11-19 11:38:44 51°31.109 3°0.399 201.8 10.4 200 27.6
2009-11-19 11:39:45 51°30.95 3°0.308 201.6 9.5 199 27.4
2009-11-19 11:40:44 51°30.799 3°0.223 203.1 10.1 199 27.6
2009-11-19 11:41:44 51°30.644 3°0.138 201.9 9.9 198 26.9
2009-11-19 11:42:44 51°30.491 3°0.051 203.1 9.9 198 27.8
2009-11-19 11:43:45 51°30.333 2°59.959 202.6 9.9 202 26.5
2009-11-19 11:44:45 51°30.18 2°59.882 200.2 9.1 198 -999
2009-11-19 11:45:44 51°30.028 2°59.793 203.1 10 200 28.4
2009-11-19 11:46:44 51°29.87 2°59.706 202.7 10.4 200 28.7
2009-11-19 11:47:46 51°29.708 2°59.617 204 9.6 199 28.4
2009-11-19 11:48:44 51°29.558 2°59.531 202.9 10.3 201 29.3
2009-11-19 11:49:44 51°29.398 2°59.44 200.3 9.8 198 29.4
2009-11-19 11:50:45 51°29.245 2°59.356 203.9 9.8 201 30.8
2009-11-19 11:51:45 51°29.093 2°59.268 202.4 9.9 201 30.2
2009-11-19 11:52:45 51°28.941 2°59.183 203 9.5 199 31
2009-11-19 11:53:44 51°28.79 2°59.095 202.7 9.8 200 31.6
2009-11-19 11:54:44 51°28.636 2°59.005 203.3 9.7 197 29.7
2009-11-19 11:55:44 51°28.479 2°58.919 202.8 9.7 199 28.9
2009-11-19 11:56:44 51°28.324 2°58.826 202.3 9.9 200 28.1
2009-11-19 11:57:44 51°28.169 2°58.74 202.2 9.7 200 27.4
2009-11-19 11:58:44 51°28.014 2°58.656 201.9 10.2 198 26.3
2009-11-19 11:59:44 51°27.86 2°58.576 201.3 9.6 201 22.5
2009-11-19 12:00:44 51°27.705 2°58.493 201.8 9.8 199 22.2
2009-11-19 12:01:45 51°27.547 2°58.412 201.1 9.2 199 21.2
2009-11-19 12:02:44 51°27.402 2°58.343 201.8 9.8 199 19.8
2009-11-19 12:03:44 51°27.246 2°58.263 202.6 9.8 197 18.9
2009-11-19 12:04:44 51°27.091 2°58.184 202.6 10.1 199 17.7
2009-11-19 12:05:44 51°26.934 2°58.108 203.7 9.8 196 16
2009-11-19 12:06:44 51°26.783 2°58.034 203.4 9.7 195 19.2
2009-11-19 12:07:45 51°26.631 2°57.965 202 9.3 195 18.6
2009-11-19 12:08:44 51°26.484 2°57.897 202.6 9.3 196 18.2
2009-11-19 12:09:44 51°26.334 2°57.829 202.6 9.4 196 19.2
2009-11-19 12:10:45 51°26.184 2°57.764 201.2 8.9 192 -999
2009-11-19 12:11:44 51°26.039 2°57.696 202.7 9.6 197 21.9
2009-11-19 12:12:44 51°25.89 2°57.628 202.1 9.4 195 23.1
2009-11-19 12:13:45 51°25.744 2°57.564 202.6 9 196 26.1
2009-11-19 12:14:47 51°25.601 2°57.505 201.7 8.6 196 26
2009-11-19 12:15:45 51°25.46 2°57.441 201.8 9 197 27.2
2009-11-19 12:16:45 51°25.316 2°57.376 200.4 8.7 198 27.3
2009-11-19 12:17:46 51°25.177 2°57.318 203.2 8.6 194 25.8
2009-11-19 12:18:44 51°25.041 2°57.261 202.2 8.9 194 24.7
2009-11-19 12:19:45 51°24.896 2°57.2 203.6 9 196 23.8
2009-11-19 12:20:44 51°24.751 2°57.134 202.9 9.2 197 22.7
2009-11-19 12:21:44 51°24.605 2°57.072 202.5 9.3 195 21.3
2009-11-19 12:22:44 51°24.459 2°57.012 201.5 9.1 195 19.2
2009-11-19 12:23:44 51°24.313 2°56.953 201.4 9 194 17.2
2009-11-19 12:24:44 51°24.166 2°56.889 202.7 9.2 198 18.6
2009-11-19 12:25:44 51°24.019 2°56.824 202.4 9.2 196 17.3
2009-11-19 12:26:44 51°23.876 2°56.76 202.9 8.7 195 17
2009-11-19 12:27:44 51°23.735 2°56.697 203.3 8.9 197 18.7
2009-11-19 12:28:44 51°23.61 2°56.647 202.9 4.7 188 20
2009-11-19 12:29:44 51°23.569 2°56.655 205.5 1.6 151 20.9
2009-11-19 12:30:44 51°23.542 2°56.676 202.2 3.6 183 20.7
2009-11-19 12:31:44 51°23.433 2°56.643 201 8.4 193 20.7
2009-11-19 12:32:44 51°23.29 2°56.58 202.2 9.3 195 20.9
2009-11-19 12:33:44 51°23.144 2°56.519 201.7 9.1 194 19.9
2009-11-19 12:34:44 51°22.995 2°56.454 202.4 9.1 197 20.2
2009-11-19 12:35:44 51°22.85 2°56.393 202.8 9 194 19.8
2009-11-19 12:36:44 51°22.705 2°56.333 202.9 8.8 196 20.3
2009-11-19 12:37:44 51°22.56 2°56.273 200.2 9 192 20.5
2009-11-19 12:38:44 51°22.417 2°56.209 203.5 8.7 196 20
2009-11-19 12:39:44 51°22.276 2°56.148 203.4 9 197 20.1
2009-11-19 12:40:44 51°22.134 2°56.09 202.6 8.7 195 19.7
2009-11-19 12:41:44 51°21.994 2°56.029 206.4 8.7 199 20.2
2009-11-19 12:42:44 51°21.879 2°55.91 224.7 8.2 223 20.3
2009-11-19 12:43:44 51°21.77 2°55.763 222.2 8.7 218 19.6
2009-11-19 12:44:44 51°21.656 2°55.632 220 8.3 218 20.2
2009-11-19 12:45:44 51°21.536 2°55.507 215.9 8.7 212 19.4
2009-11-19 12:46:44 51°21.415 2°55.389 215.5 8.4 210 19
2009-11-19 12:47:44 51°21.292 2°55.273 215.1 8.2 212 18.9
2009-11-19 12:48:44 51°21.173 2°55.159 215.8 8.5 210 19.1
2009-11-19 12:49:44 51°21.051 2°55.045 214.9 8.5 209 19.4
2009-11-19 12:50:44 51°20.932 2°54.931 215.3 8.4 211 19
2009-11-19 12:51:44 51°20.81 2°54.811 215.2 8.6 213 18.8
2009-11-19 12:52:44 51°20.688 2°54.694 214.5 8.7 211 18.6
2009-11-19 12:53:44 51°20.571 2°54.581 215.3 8 210 17.7
2009-11-19 12:54:44 51°20.451 2°54.465 215 8.6 211 18.2
2009-11-19 12:55:44 51°20.331 2°54.34 215.9 8.5 213 17.9
2009-11-19 12:56:44 51°20.211 2°54.221 214.6 8.7 211 17.6
2009-11-19 12:57:44 51°20.088 2°54.102 214.8 8.5 211 16.9
2009-11-19 12:58:44 51°19.966 2°53.982 215.5 8.8 212 16.7
2009-11-19 12:59:44 51°19.844 2°53.862 214.6 8.5 211 16.4
2009-11-19 13:00:44 51°19.724 2°53.742 214.7 8.4 210 17.3
2009-11-19 13:01:44 51°19.604 2°53.621 215.9 8.6 212 16.4
2009-11-19 13:02:44 51°19.483 2°53.501 214.9 8.5 212 16
2009-11-19 13:03:44 51°19.363 2°53.382 214.2 8.7 213 15.6
2009-11-19 13:04:44 51°19.242 2°53.259 215.2 8.5 211 15.5
2009-11-19 13:05:44 51°19.122 2°53.134 216.4 8.7 215 15.2
2009-11-19 13:06:44 51°19.002 2°53.011 214.8 8.5 212 15.1
2009-11-19 13:07:44 51°18.879 2°52.894 211.2 8.7 208 14.6
2009-11-19 13:08:44 51°18.746 2°52.796 205.8 8.9 202 14.3
2009-11-19 13:09:44 51°18.608 2°52.711 204.5 8.9 199 14.7
2009-11-19 13:10:44 51°18.472 2°52.624 207.4 8.9 202 14.1
2009-11-19 13:11:44 51°18.337 2°52.537 203.9 8.7 199 13.6
2009-11-19 13:12:44 51°18.192 2°52.472 196.8 9.1 193 13.5
2009-11-19 13:13:44 51°18.045 2°52.437 191.7 8.9 186 13.5
2009-11-19 13:14:44 51°17.892 2°52.411 190.4 9.4 185 13.2
2009-11-19 13:15:44 51°17.739 2°52.394 184.5 9.5 177 12.7
2009-11-19 13:16:44 51°17.583 2°52.431 175.9 9.6 167 13.4
2009-11-19 13:17:44 51°17.425 2°52.482 176.4 9.8 167 13.2
2009-11-19 13:18:44 51°17.267 2°52.533 177.4 9.6 168 13.2
2009-11-19 13:19:44 51°17.108 2°52.584 175.4 9.9 167 12.5
2009-11-19 13:20:44 51°16.949 2°52.629 176.6 9.7 169 12.6
2009-11-19 13:21:44 51°16.789 2°52.673 176.4 10.1 163 12.6
2009-11-19 13:22:44 51°16.629 2°52.731 173.3 10.2 166 14.2
2009-11-19 13:23:44 51°16.468 2°52.805 173.2 10 165 14.3
2009-11-19 13:24:45 51°16.307 2°52.891 168.5 9.9 161 14.7
2009-11-19 13:25:44 51°16.153 2°52.989 166.6 10.3 155 15.1
2009-11-19 13:26:44 51°15.998 2°53.088 167.9 9.8 160 14.8
2009-11-19 13:27:44 51°15.841 2°53.185 167 10.2 160 14.3
2009-11-19 13:28:44 51°15.683 2°53.284 165.8 10.3 157 14.5
2009-11-19 13:29:44 51°15.527 2°53.398 161.5 10.5 154 14
2009-11-19 13:30:44 51°15.377 2°53.526 156.6 10.2 155 13.4
2009-11-19 13:31:44 51°15.231 2°53.675 154 10.2 149 12.7
2009-11-19 13:32:44 51°15.086 2°53.824 154.4 10.5 148 13.2
2009-11-19 13:33:45 51°14.937 2°53.972 151.8 10.6 142 12.9
2009-11-19 13:34:44 51°14.811 2°54.156 137.9 10.6 134 12.7
2009-11-19 13:35:44 51°14.703 2°54.391 140.2 10.8 131 13.2
2009-11-19 13:36:44 51°14.586 2°54.619 138 11.2 130 13
2009-11-19 13:37:44 51°14.467 2°54.843 137.3 11.1 131 13.2
2009-11-19 13:38:44 51°14.352 2°55.08 131 11.3 131 13.7
2009-11-19 13:39:44 51°14.238 2°55.284 132.8 9.6 135 13.6
2009-11-19 13:40:44 51°14.119 2°55.419 151.4 8.4 154 13.2
2009-11-19 13:41:44 51°14 2°55.507 154.9 6.8 158 13.6
2009-11-19 13:42:44 51°13.905 2°55.575 154 5.9 154 13.6
2009-11-19 13:43:44 51°13.82 2°55.642 151.1 5.7 151 14.2
2009-11-19 13:44:47 51°13.748 2°55.734 131.4 5 132 14
2009-11-19 13:45:48 51°13.698 2°55.837 122.3 4.4 123 -999
2009-11-19 13:46:48 51°13.669 2°55.928 114.8 3.4 115 -999